This is the latest recevied weather packets stored in our database for station/object JH0FOG-13. If no packets are shown the sender has not sent any weather packets the latest 1 day(s).
| Time | Temp. | Humidity | Pressure | Rain* | Wind** | Luminosity | Snow |
|---|---|---|---|---|---|---|---|
| 1777992001 | 8.33° C | 85% | 1020.1 hPa | 0 mm | 0 m/s | - | - |
| 1777990801 | 8.33° C | 83% | 1020.3 hPa | 0 mm | 0 m/s | - | - |
| 1777989601 | 8.89° C | 81% | 1020.2 hPa | 0 mm | 0 m/s | - | - |
| 1777988401 | 9.44° C | 80% | 1020.4 hPa | 0 mm | 0 m/s | - | - |
| 1777987201 | 9.44° C | 81% | 1020.3 hPa | 0 mm | 0.45 m/s, 163° | - | - |
| 1777986001 | 10° C | 79% | 1020.1 hPa | 0 mm | 0 m/s | - | - |
| 1777984801 | 10° C | 79% | 1020.2 hPa | 0 mm | 0 m/s | - | - |
| 1777983601 | 10.56° C | 78% | 1020 hPa | 0 mm | 0 m/s | - | - |
| 1777982401 | 10.56° C | 77% | 1019.7 hPa | 0 mm | 0.45 m/s, 184° | - | - |
| 1777981201 | 11.11° C | 76% | 1019.7 hPa | 0 mm | 0.45 m/s, 167° | - | - |
| 1777980001 | 11.67° C | 75% | 1019.6 hPa | 0 mm | 0 m/s | - | - |
| 1777978801 | 12.22° C | 72% | 1019.5 hPa | 0 mm | 0.45 m/s, 171° | - | - |
| 1777977601 | 12.78° C | 71% | 1019.3 hPa | 0 mm | 0 m/s | - | - |
| 1777976401 | 13.33° C | 68% | 1019.2 hPa | 0 mm | 0.45 m/s, 178° | - | - |
| 1777975201 | 13.89° C | 65% | 1019.1 hPa | 0 mm | 0 m/s | - | - |
| 1777974001 | 14.44° C | 64% | 1019 hPa | 0 mm | 0 m/s | - | - |
| 1777972801 | 15.56° C | 55% | 1018.7 hPa | 0 mm | 0 m/s | - | - |
| 1777971602 | 16.11° C | 53% | 1018.6 hPa | 0 mm | 0 m/s | - | - |
| 1777970402 | 16.67° C | 54% | 1018.3 hPa | 0 mm | 0 m/s | - | - |
| 1777969202 | 18.33° C | 41% | 1018.3 hPa | 0 mm | 0.45 m/s, 317° | - | - |
| 1777968002 | 19.44° C | 38% | 1018.5 hPa | 0 mm | 0.89 m/s, 322° | - | - |
| 1777966802 | 18.89° C | 43% | 1018.4 hPa | 0 mm | 0.45 m/s, 330° | - | - |
| 1777965602 | 19.44° C | 36% | 1018.5 hPa | 0 mm | 0.89 m/s, 341° | - | - |
* Rain latest hour (hover to see other rain measurements)
** Current wind speed in m/s (hover to see current wind gust speed)